CheckWX is a tool to help pilots better visualize weather data.  It is not intended as a substitute for an official pre-flight weather briefing.

07:13:48 UTC

LHSN TAF
Szolnok Airport
Szolnok, Hungary
TAF AMD LHSN 200643Z 2006/2015 08006KT CAVOK TEMPO 2006/2009 9999 BKN007 BECMG 2009/2011 9999 BKN025 TEMPO 2009/2015 VRB20G30KT 3000 SHRA TSRA SCT010 BKN025CB BKN033TCU

Jun-20@
06:00 UTC

Jun-20 @ 06:00 UTC

Jun-20@
09:00 UTC

Jun-20 @ 09:00 UTC

TAF AMD LHSN 200643Z 2006/2015 08006KT CAVOK
Wind
  • 080° at 6 KTS
Conditions
No significant weather
Cloud Levels
  • No significant clouds

Jun-20@
06:00 UTC

Jun-20 @ 06:00 UTC

Jun-20@
09:00 UTC

Jun-20 @ 09:00 UTC

TEMPO 2006/2009 9999 BKN007

Temporary

Temporary Changes expected for less than half the time period

Cloud Levels
  • Broken at 700' AGL

Jun-20@
09:00 UTC

Jun-20 @ 09:00 UTC

Jun-20@
15:00 UTC

Jun-20 @ 15:00 UTC

BECMG 2009/2011 9999 BKN025

Becoming

Becoming Conditions expected by Thu, Jun 20, 2019 @ 11:00 UTC

Wind
  • 080° at 6 KTS
Conditions
No significant weather
Cloud Levels
  • Broken at 2,500' AGL

Jun-20@
09:00 UTC

Jun-20 @ 09:00 UTC

Jun-20@
15:00 UTC

Jun-20 @ 15:00 UTC

TEMPO 2009/2015 VRB20G30KT 3000 SHRA TSRA SCT010 BKN025CB BKN033TCU

Temporary

Temporary Changes expected for less than half the time period

Wind
  • Variable at 20 KTS
  • {Gusting to 30 KTS
Conditions
Rain, Thunderstorm, Rain
Cloud Levels
  • Scattered at 1,000' AGL
  • Broken at 2,500' AGL
  • Broken at 3,300' AGL